UAE863 OOMS-OMDB
Flight info
| Callsign | UAE863 |
|---|---|
| Flight time | 0h 37m |
| Altitude | 20000 |
| Route | ITLAK DCT MIXAM T508 SOLUD P574 IMPED |
| Aircraft | A359/H-SDE2E3GHIJ3J4J5LM1ORWXY/LB1D1 |
Departure
| Time | 2026-04-30 18:50 |
|---|---|
| Airport | Muscat International Airport (OOMS) |
Arrival
| Time | 2026-04-30 19:27 |
|---|---|
| Airport | Dubai International Airport (OMDB) |
| Time | Latitude | Longitude | Altitude | Speed | Heading |
|---|---|---|---|---|---|
| 2026-04-30 18:30 | 23.60413 | 58.28570 | 40 ft | 0 kts | 85° |
| 2026-04-30 18:41 | 23.60412 | 58.28563 | 40 ft | 4 kts | 85° |
| 2026-04-30 18:41 | 23.60410 | 58.28534 | 40 ft | 4 kts | 85° |
| 2026-04-30 18:41 | 23.60408 | 58.28508 | 40 ft | 2 kts | 85° |
| 2026-04-30 18:41 | 23.60403 | 58.28481 | 38 ft | 4 kts | 59° |
| 2026-04-30 18:42 | 23.60386 | 58.28460 | 38 ft | 4 kts | 28° |
| 2026-04-30 18:42 | 23.60344 | 58.28450 | 36 ft | 0 kts | 355° |
| 2026-04-30 18:45 | 23.60390 | 58.28446 | 39 ft | 12 kts | 355° |
| 2026-04-30 18:45 | 23.60454 | 58.28440 | 40 ft | 15 kts | 355° |
| 2026-04-30 18:45 | 23.60539 | 58.28461 | 40 ft | 12 kts | 59° |
| 2026-04-30 18:46 | 23.60553 | 58.28561 | 41 ft | 15 kts | 85° |
| 2026-04-30 18:46 | 23.60562 | 58.28680 | 41 ft | 17 kts | 85° |
| 2026-04-30 18:46 | 23.60574 | 58.28820 | 40 ft | 20 kts | 85° |
| 2026-04-30 18:46 | 23.60586 | 58.28978 | 41 ft | 22 kts | 85° |
| 2026-04-30 18:47 | 23.60600 | 58.29153 | 40 ft | 24 kts | 85° |
| 2026-04-30 18:47 | 23.60615 | 58.29330 | 40 ft | 20 kts | 85° |
| 2026-04-30 18:47 | 23.60626 | 58.29470 | 40 ft | 11 kts | 85° |
| 2026-04-30 18:47 | 23.60633 | 58.29561 | 40 ft | 13 kts | 85° |
| 2026-04-30 18:48 | 23.60672 | 58.29608 | 40 ft | 7 kts | 6° |
| 2026-04-30 18:48 | 23.60729 | 58.29605 | 40 ft | 10 kts | 354° |
| 2026-04-30 18:48 | 23.60807 | 58.29597 | 39 ft | 13 kts | 355° |
| 2026-04-30 18:48 | 23.60884 | 58.29556 | 40 ft | 13 kts | 291° |
| 2026-04-30 18:49 | 23.60885 | 58.29451 | 40 ft | 18 kts | 265° |
| 2026-04-30 18:49 | 23.60855 | 58.29087 | 41 ft | 87 kts | 265° |
| 2026-04-30 18:49 | 23.60785 | 58.28169 | 40 ft | 154 kts | 265° |
| 2026-04-30 18:49 | 23.60675 | 58.26886 | 579 ft | 166 kts | 264° |
| 2026-04-30 18:50 | 23.60569 | 58.25657 | 1414 ft | 163 kts | 267° |
| 2026-04-30 18:50 | 23.60467 | 58.24336 | 1738 ft | 187 kts | 266° |
| 2026-04-30 18:50 | 23.60342 | 58.22824 | 2019 ft | 214 kts | 266° |
| 2026-04-30 18:50 | 23.60203 | 58.21115 | 2350 ft | 239 kts | 266° |
| 2026-04-30 18:51 | 23.60057 | 58.19239 | 2839 ft | 255 kts | 265° |
| 2026-04-30 18:51 | 23.59902 | 58.17289 | 3572 ft | 261 kts | 266° |
| 2026-04-30 18:51 | 23.59742 | 58.15303 | 4399 ft | 264 kts | 266° |
| 2026-04-30 18:51 | 23.59579 | 58.13295 | 5214 ft | 268 kts | 266° |
| 2026-04-30 18:52 | 23.59413 | 58.11252 | 6032 ft | 271 kts | 266° |
| 2026-04-30 18:52 | 23.59246 | 58.09195 | 6817 ft | 274 kts | 266° |
| 2026-04-30 18:52 | 23.59081 | 58.07139 | 7615 ft | 277 kts | 265° |
| 2026-04-30 18:52 | 23.59121 | 58.05038 | 8397 ft | 280 kts | 279° |
| 2026-04-30 18:53 | 23.59851 | 58.03057 | 9249 ft | 286 kts | 302° |
| 2026-04-30 18:53 | 23.61064 | 58.01314 | 10049 ft | 292 kts | 309° |
| 2026-04-30 18:53 | 23.62477 | 57.99656 | 10586 ft | 308 kts | 313° |
| 2026-04-30 18:53 | 23.64055 | 57.97963 | 10951 ft | 329 kts | 314° |
| 2026-04-30 18:54 | 23.65750 | 57.96189 | 11322 ft | 345 kts | 314° |
| 2026-04-30 18:54 | 23.67496 | 57.94345 | 11936 ft | 353 kts | 314° |
| 2026-04-30 18:54 | 23.69209 | 57.92416 | 12640 ft | 356 kts | 310° |
| 2026-04-30 18:54 | 23.70835 | 57.90346 | 13378 ft | 359 kts | 308° |
| 2026-04-30 18:55 | 23.72421 | 57.88225 | 14083 ft | 362 kts | 307° |
| 2026-04-30 18:55 | 23.75548 | 57.83890 | 15386 ft | 368 kts | 306° |
| 2026-04-30 18:55 | 23.77126 | 57.81680 | 16041 ft | 370 kts | 305° |
| 2026-04-30 18:56 | 23.80310 | 57.77231 | 17450 ft | 373 kts | 305° |
| 2026-04-30 18:56 | 23.81920 | 57.74989 | 18157 ft | 376 kts | 304° |
| 2026-04-30 18:56 | 23.83538 | 57.72738 | 18747 ft | 379 kts | 304° |
| 2026-04-30 18:57 | 23.86824 | 57.68172 | 19689 ft | 383 kts | 304° |
| 2026-04-30 18:57 | 23.88482 | 57.65868 | 19816 ft | 387 kts | 304° |
| 2026-04-30 18:57 | 23.90151 | 57.63545 | 19825 ft | 390 kts | 305° |
| 2026-04-30 18:58 | 23.93518 | 57.58860 | 19821 ft | 392 kts | 305° |
| 2026-04-30 18:58 | 23.95183 | 57.56542 | 19821 ft | 392 kts | 305° |
| 2026-04-30 18:58 | 23.96867 | 57.54198 | 19826 ft | 392 kts | 304° |
| 2026-04-30 18:59 | 24.00228 | 57.49515 | 19821 ft | 390 kts | 304° |
| 2026-04-30 19:00 | 24.05254 | 57.42501 | 19824 ft | 390 kts | 304° |
| 2026-04-30 19:00 | 24.06928 | 57.40158 | 19826 ft | 390 kts | 304° |
| 2026-04-30 19:00 | 24.10271 | 57.35476 | 19826 ft | 391 kts | 304° |
| 2026-04-30 19:01 | 24.13620 | 57.30785 | 19824 ft | 391 kts | 304° |
| 2026-04-30 19:01 | 24.15298 | 57.28433 | 19823 ft | 391 kts | 304° |
| 2026-04-30 19:02 | 24.18648 | 57.23737 | 19824 ft | 390 kts | 304° |
| 2026-04-30 19:02 | 24.21953 | 57.19101 | 19823 ft | 388 kts | 304° |
| 2026-04-30 19:03 | 24.25277 | 57.14430 | 19826 ft | 388 kts | 304° |
| 2026-04-30 19:03 | 24.28601 | 57.09754 | 19824 ft | 389 kts | 304° |
| 2026-04-30 19:04 | 24.31929 | 57.05069 | 19832 ft | 389 kts | 304° |
| 2026-04-30 19:04 | 24.35256 | 57.00382 | 19825 ft | 390 kts | 304° |
| 2026-04-30 19:05 | 24.38585 | 56.95688 | 19821 ft | 390 kts | 304° |
| 2026-04-30 19:05 | 24.41893 | 56.91018 | 19817 ft | 389 kts | 304° |
| 2026-04-30 19:06 | 24.45217 | 56.86322 | 19815 ft | 389 kts | 304° |
| 2026-04-30 19:06 | 24.46879 | 56.83972 | 19816 ft | 389 kts | 304° |
| 2026-04-30 19:06 | 24.50205 | 56.79265 | 19812 ft | 390 kts | 304° |
| 2026-04-30 19:07 | 24.53529 | 56.74557 | 19810 ft | 390 kts | 304° |
| 2026-04-30 19:07 | 24.55200 | 56.72195 | 19814 ft | 390 kts | 304° |
| 2026-04-30 19:08 | 24.58530 | 56.67490 | 19816 ft | 390 kts | 304° |
| 2026-04-30 19:08 | 24.61856 | 56.62780 | 19845 ft | 390 kts | 304° |
| 2026-04-30 19:08 | 24.63520 | 56.60422 | 19846 ft | 390 kts | 304° |
| 2026-04-30 19:09 | 24.66904 | 56.55619 | 19547 ft | 406 kts | 304° |
| 2026-04-30 19:09 | 24.68633 | 56.53164 | 19317 ft | 406 kts | 305° |
| 2026-04-30 19:09 | 24.70367 | 56.50713 | 19101 ft | 405 kts | 305° |
| 2026-04-30 19:10 | 24.72983 | 56.47005 | 18518 ft | 397 kts | 305° |
| 2026-04-30 19:10 | 24.76348 | 56.42215 | 17257 ft | 393 kts | 305° |
| 2026-04-30 19:11 | 24.78012 | 56.39844 | 16647 ft | 390 kts | 305° |
| 2026-04-30 19:11 | 24.81299 | 56.35138 | 15414 ft | 384 kts | 304° |
| 2026-04-30 19:11 | 24.82891 | 56.32788 | 14796 ft | 382 kts | 304° |
| 2026-04-30 19:12 | 24.84459 | 56.30446 | 14263 ft | 378 kts | 303° |
| 2026-04-30 19:12 | 24.86003 | 56.28135 | 13929 ft | 368 kts | 303° |
| 2026-04-30 19:12 | 24.87447 | 56.25884 | 13796 ft | 350 kts | 298° |
| 2026-04-30 19:13 | 24.89795 | 56.21508 | 13560 ft | 320 kts | 297° |
| 2026-04-30 19:13 | 24.91911 | 56.17432 | 13298 ft | 293 kts | 296° |
| 2026-04-30 19:13 | 24.92899 | 56.15516 | 13146 ft | 281 kts | 296° |
| 2026-04-30 19:14 | 24.93845 | 56.13677 | 13019 ft | 270 kts | 296° |
| 2026-04-30 19:14 | 24.94756 | 56.11904 | 12850 ft | 262 kts | 296° |
| 2026-04-30 19:14 | 24.95650 | 56.10158 | 12575 ft | 261 kts | 296° |
| 2026-04-30 19:14 | 24.96540 | 56.08422 | 12285 ft | 260 kts | 296° |
| 2026-04-30 19:15 | 24.97505 | 56.06727 | 11978 ft | 262 kts | 304° |
| 2026-04-30 19:15 | 24.99912 | 56.03680 | 11600 ft | 267 kts | 308° |
| 2026-04-30 19:15 | 25.01160 | 56.02165 | 11383 ft | 266 kts | 308° |
| 2026-04-30 19:16 | 25.02402 | 56.00655 | 11196 ft | 266 kts | 308° |
| 2026-04-30 19:16 | 25.03656 | 55.99127 | 11003 ft | 265 kts | 308° |
| 2026-04-30 19:16 | 25.06097 | 55.96140 | 10618 ft | 262 kts | 308° |
| 2026-04-30 19:17 | 25.07149 | 55.94555 | 10298 ft | 251 kts | 296° |
| 2026-04-30 19:17 | 25.08041 | 55.90772 | 8413 ft | 266 kts | 276° |
| 2026-04-30 19:17 | 25.08221 | 55.88722 | 7540 ft | 270 kts | 275° |
| 2026-04-30 19:18 | 25.08494 | 55.85295 | 6921 ft | 270 kts | 275° |
| 2026-04-30 19:18 | 25.08710 | 55.82561 | 6488 ft | 267 kts | 275° |
| 2026-04-30 19:18 | 25.08871 | 55.80529 | 6166 ft | 266 kts | 275° |
| 2026-04-30 19:19 | 25.09020 | 55.78654 | 5889 ft | 265 kts | 275° |
| 2026-04-30 19:19 | 25.09181 | 55.76626 | 5585 ft | 266 kts | 276° |
| 2026-04-30 19:19 | 25.09494 | 55.72644 | 5225 ft | 249 kts | 276° |
| 2026-04-30 19:20 | 25.09640 | 55.70790 | 5091 ft | 237 kts | 276° |
| 2026-04-30 19:20 | 25.09778 | 55.69020 | 4965 ft | 226 kts | 276° |
| 2026-04-30 19:20 | 25.10037 | 55.65729 | 4716 ft | 207 kts | 276° |
| 2026-04-30 19:21 | 25.10310 | 55.64215 | 4594 ft | 197 kts | 289° |
| 2026-04-30 19:21 | 25.11441 | 55.61543 | 4306 ft | 191 kts | 302° |
| 2026-04-30 19:22 | 25.12791 | 55.59037 | 3919 ft | 186 kts | 301° |
| 2026-04-30 19:22 | 25.14704 | 55.55558 | 3196 ft | 182 kts | 303° |
| 2026-04-30 19:23 | 25.16690 | 55.52020 | 2494 ft | 180 kts | 302° |
| 2026-04-30 19:24 | 25.18002 | 55.49652 | 2036 ft | 180 kts | 306° |
| 2026-04-30 19:24 | 25.18652 | 55.48472 | 1794 ft | 178 kts | 301° |
| 2026-04-30 19:24 | 25.19820 | 55.46324 | 1375 ft | 150 kts | 302° |
| 2026-04-30 19:25 | 25.21310 | 55.43614 | 843 ft | 131 kts | 300° |
| 2026-04-30 19:26 | 25.22267 | 55.41880 | 568 ft | 133 kts | 299° |
| 2026-04-30 19:26 | 25.23245 | 55.40106 | 215 ft | 137 kts | 299° |
| 2026-04-30 19:26 | 25.23733 | 55.39227 | 42 ft | 132 kts | 300° |
| 2026-04-30 19:27 | 25.24464 | 55.37911 | 31 ft | 63 kts | 301° |
| 2026-04-30 19:27 | 25.24753 | 55.37370 | 29 ft | 27 kts | 290° |
| 2026-04-30 19:28 | 25.24784 | 55.37167 | 30 ft | 26 kts | 270° |
| 2026-04-30 19:28 | 25.24785 | 55.37087 | 29 ft | 9 kts | 272° |
| 2026-04-30 19:29 | 25.24772 | 55.36959 | 27 ft | 9 kts | 228° |
| 2026-04-30 19:29 | 25.24744 | 55.36940 | 28 ft | 10 kts | 204° |
| 2026-04-30 19:30 | 25.24626 | 55.37074 | 28 ft | 14 kts | 121° |
| 2026-04-30 19:30 | 25.24505 | 55.37289 | 27 ft | 20 kts | 122° |
| 2026-04-30 19:31 | 25.24405 | 55.37467 | 27 ft | 14 kts | 122° |
| 2026-04-30 19:31 | 25.24368 | 55.37532 | 27 ft | 9 kts | 122° |
| 2026-04-30 19:31 | 25.24277 | 55.37530 | 27 ft | 4 kts | 211° |
| 2026-04-30 19:32 | 25.24262 | 55.37520 | 27 ft | 0 kts | 211° |